Em Athens — V7US8 — position and weather

sailwx.info

Track history (hours):
 
Tides and Currents Weather Stations Pressure Air Temp Water Temp Dewpoint Dewpoint Depression Visibility Wind Speed Wind Dir Waves Ship Positions

Em Athens

Last reported at 2014-Nov-22 09:09 UTC. Time now 2014-Nov-23 08:30 UTC.
Position N 36°09' W 005°25'.

; draft 10.5 m.

Type: Ship. MMSI: 538004019.

Date/timePositionNaut miles runAvg speedWind from/ knotsBaromVisibWave heightAir tempDewpointWater temp
2014-Nov-22 09:09N 36°09' W 005°25'3 5.8
2014-Nov-22 08:33N 36°06' W 005°23'2 1.7
2014-Nov-22 07:33N 36°04' W 005°21'0 0.1
2014-Nov-22 06:33N 36°04' W 005°21'1 1.2
2014-Nov-22 05:33N 36°05' W 005°22'8 3.9
2014-Nov-22 03:29N 36°09' W 005°13'0 0.5
2014-Nov-22 02:33N 36°09' W 005°13'1 0.7
2014-Nov-22 01:33N 36°09' W 005°12'211 7.8
2014-Nov-20 22:33N 37°14' W 001°03'1212.4
2014-Nov-20 21:33N 37°22' W 000°51'1312.5
2014-Nov-20 20:33N 37°30' W 000°39'1212.4
2014-Nov-20 19:33N 37°39' W 000°29'1212.1
2014-Nov-20 18:33N 37°50' W 000°20'1212.1
2014-Nov-20 17:32N 37°60' W 000°12'87 9.4
2014-Nov-20 08:17N 39°26' W 000°20'0 0.1
2014-Nov-20 07:31N 39°26' W 000°20'0 0.0
2014-Nov-20 04:32N 39°26' W 000°20'0 0.0
2014-Nov-20 03:32N 39°26' W 000°20'0 0.0
2014-Nov-20 02:28N 39°26' W 000°20'0 0.0
2014-Nov-20 01:31N 39°26' W 000°20'0 0.0
2014-Nov-19 23:11N 39°26' W 000°20'0 0.0
2014-Nov-19 22:08N 39°26' W 000°20'0 0.0
2014-Nov-19 19:28N 39°26' W 000°20'0 0.0
2014-Nov-19 18:25N 39°26' W 000°20'1 0.8
2014-Nov-19 17:33N 39°26' W 000°19'7812.9
2014-Nov-19 11:33N 40°03' E 001°10'1514.7
2014-Nov-19 10:33N 40°14' E 001°23'1515.0
2014-Nov-19 09:33N 40°25' E 001°37'1414.4
2014-Nov-19 08:33N 40°35' E 001°51'1313.3
2014-Nov-19 07:34N 40°45' E 002°02'1312.8
2014-Nov-19 06:33N 40°54' E 002°13'1212.5
2014-Nov-19 05:33N 41°03' E 002°25'10512.5
2014-Nov-18 21:10N 42°20' E 004°01'1212.1
2014-Nov-18 20:10N 42°29' E 004°12'812.5
2014-Nov-18 19:31N 42°35' E 004°20'1612.5
2014-Nov-18 18:15N 42°46' E 004°35'1012.8
2014-Nov-18 17:29N 42°53' E 004°44'1112.0
2014-Nov-18 16:33N 43°01' E 004°54'1212.1
2014-Nov-18 15:33N 43°13' E 004°57'1010.5
2014-Nov-18 14:34N 43°24' E 004°55'4 3.6
2014-Nov-18 13:29N 43°25' E 004°50'0 0.0
2014-Nov-18 12:29N 43°25' E 004°50'0 0.0
2014-Nov-18 11:32N 43°25' E 004°50'0 0.0
2014-Nov-18 10:32N 43°25' E 004°50'0 0.0
2014-Nov-18 09:32N 43°25' E 004°50'0 0.0
2014-Nov-18 08:32N 43°25' E 004°50'0 0.0
2014-Nov-18 07:32N 43°25' E 004°50'0 0.0
2014-Nov-18 06:33N 43°25' E 004°50'0 0.0
2014-Nov-18 05:33N 43°25' E 004°50'0 0.0
2014-Nov-18 04:31N 43°25' E 004°50'7 7.5
2014-Nov-18 03:33N 43°21' E 004°58'8 8.4
2014-Nov-18 02:33N 43°13' E 005°02'1010.3
2014-Nov-18 01:33N 43°05' E 005°12'1111.3
2014-Nov-18 00:33N 42°59' E 005°25'1212.0
2014-Nov-17 23:33N 42°53' E 005°38'1212.1
2014-Nov-17 22:33N 42°46' E 005°52'1212.0
2014-Nov-17 21:33N 42°40' E 006°06'1312.0
2014-Nov-17 20:30N 42°34' E 006°21'51613.9
2014-Nov-16 07:27N 37°50' E 015°45'42417.5
2014-Nov-15 07:16N 35°53' E 024°14'1217.3
2014-Nov-15 06:33N 35°50' E 024°28'1817.5
2014-Nov-15 05:33N 35°47' E 024°49'1717.4
2014-Nov-15 04:33N 35°43' E 025°10'1717.3
2014-Nov-15 03:33N 35°39' E 025°31'1716.8
2014-Nov-15 02:33N 35°34' E 025°51'31215.5
2014-Nov-14 06:29N 33°44' E 031°45'4217.8
2014-Nov-14 04:08N 33°29' E 032°32'1818.0
2014-Nov-14 03:10N 33°23' E 032°51'6917.5
2014-Nov-13 23:12N 32°60' E 034°10'1217.5
2014-Nov-13 22:31N 32°58' E 034°24'1717.8
2014-Nov-13 21:34N 32°56' E 034°44'11 0.4
2014-Nov-12 18:16N 32°53' E 034°56'710.4
2014-Nov-12 17:33N 32°54' E 034°48'1110.4
2014-Nov-12 16:31N 32°56' E 034°35'1110.8
2014-Nov-12 15:29N 32°58' E 034°22'1011.0
2014-Nov-12 14:33N 32°60' E 034°10'25 5.9
2014-Nov-12 10:20N 33°24' E 034°05'1 0.8
2014-Nov-12 09:26N 33°25' E 034°05'  
Track history (hours):
 
Tides and Currents Weather Stations Pressure Air Temp Water Temp Dewpoint Dewpoint Depression Visibility Wind Speed Wind Dir Waves Ship Positions

Em Athens

Last reported at 2014-Nov-22 09:09 UTC. Time now 2014-Nov-23 08:30 UTC.
Position N 36°09' W 005°25'.

; draft 10.5 m.

Type: Ship. MMSI: 538004019.

Date/timePositionNaut miles runAvg speedWind from/ knotsBaromVisibWave heightAir tempDewpointWater temp
2014-Nov-22 09:09N 36°09' W 005°25'3 5.8
2014-Nov-22 08:33N 36°06' W 005°23'2 1.7
2014-Nov-22 07:33N 36°04' W 005°21'0 0.1
2014-Nov-22 06:33N 36°04' W 005°21'1 1.2
2014-Nov-22 05:33N 36°05' W 005°22'8 3.9
2014-Nov-22 03:29N 36°09' W 005°13'0 0.5
2014-Nov-22 02:33N 36°09' W 005°13'1 0.7
2014-Nov-22 01:33N 36°09' W 005°12'211 7.8
2014-Nov-20 22:33N 37°14' W 001°03'1212.4
2014-Nov-20 21:33N 37°22' W 000°51'1312.5
2014-Nov-20 20:33N 37°30' W 000°39'1212.4
2014-Nov-20 19:33N 37°39' W 000°29'1212.1
2014-Nov-20 18:33N 37°50' W 000°20'1212.1
2014-Nov-20 17:32N 37°60' W 000°12'87 9.4
2014-Nov-20 08:17N 39°26' W 000°20'0 0.1
2014-Nov-20 07:31N 39°26' W 000°20'0 0.0
2014-Nov-20 04:32N 39°26' W 000°20'0 0.0
2014-Nov-20 03:32N 39°26' W 000°20'0 0.0
2014-Nov-20 02:28N 39°26' W 000°20'0 0.0
2014-Nov-20 01:31N 39°26' W 000°20'0 0.0
2014-Nov-19 23:11N 39°26' W 000°20'0 0.0
2014-Nov-19 22:08N 39°26' W 000°20'0 0.0
2014-Nov-19 19:28N 39°26' W 000°20'0 0.0
2014-Nov-19 18:25N 39°26' W 000°20'1 0.8
2014-Nov-19 17:33N 39°26' W 000°19'7812.9
2014-Nov-19 11:33N 40°03' E 001°10'1514.7
2014-Nov-19 10:33N 40°14' E 001°23'1515.0
2014-Nov-19 09:33N 40°25' E 001°37'1414.4
2014-Nov-19 08:33N 40°35' E 001°51'1313.3
2014-Nov-19 07:34N 40°45' E 002°02'1312.8
2014-Nov-19 06:33N 40°54' E 002°13'1212.5
2014-Nov-19 05:33N 41°03' E 002°25'10512.5
2014-Nov-18 21:10N 42°20' E 004°01'1212.1
2014-Nov-18 20:10N 42°29' E 004°12'812.5
2014-Nov-18 19:31N 42°35' E 004°20'1612.5
2014-Nov-18 18:15N 42°46' E 004°35'1012.8
2014-Nov-18 17:29N 42°53' E 004°44'1112.0
2014-Nov-18 16:33N 43°01' E 004°54'1212.1
2014-Nov-18 15:33N 43°13' E 004°57'1010.5
2014-Nov-18 14:34N 43°24' E 004°55'4 3.6
2014-Nov-18 13:29N 43°25' E 004°50'0 0.0
2014-Nov-18 12:29N 43°25' E 004°50'0 0.0
2014-Nov-18 11:32N 43°25' E 004°50'0 0.0
2014-Nov-18 10:32N 43°25' E 004°50'0 0.0
2014-Nov-18 09:32N 43°25' E 004°50'0 0.0
2014-Nov-18 08:32N 43°25' E 004°50'0 0.0
2014-Nov-18 07:32N 43°25' E 004°50'0 0.0
2014-Nov-18 06:33N 43°25' E 004°50'0 0.0
2014-Nov-18 05:33N 43°25' E 004°50'0 0.0
2014-Nov-18 04:31N 43°25' E 004°50'7 7.5
2014-Nov-18 03:33N 43°21' E 004°58'8 8.4
2014-Nov-18 02:33N 43°13' E 005°02'1010.3
2014-Nov-18 01:33N 43°05' E 005°12'1111.3
2014-Nov-18 00:33N 42°59' E 005°25'1212.0
2014-Nov-17 23:33N 42°53' E 005°38'1212.1
2014-Nov-17 22:33N 42°46' E 005°52'1212.0
2014-Nov-17 21:33N 42°40' E 006°06'1312.0
2014-Nov-17 20:30N 42°34' E 006°21'51613.9
2014-Nov-16 07:27N 37°50' E 015°45'42417.5
2014-Nov-15 07:16N 35°53' E 024°14'1217.3
2014-Nov-15 06:33N 35°50' E 024°28'1817.5
2014-Nov-15 05:33N 35°47' E 024°49'1717.4
2014-Nov-15 04:33N 35°43' E 025°10'1717.3
2014-Nov-15 03:33N 35°39' E 025°31'1716.8
2014-Nov-15 02:33N 35°34' E 025°51'31215.5
2014-Nov-14 06:29N 33°44' E 031°45'4217.8
2014-Nov-14 04:08N 33°29' E 032°32'1818.0
2014-Nov-14 03:10N 33°23' E 032°51'6917.5
2014-Nov-13 23:12N 32°60' E 034°10'1217.5
2014-Nov-13 22:31N 32°58' E 034°24'1717.8
2014-Nov-13 21:34N 32°56' E 034°44'11 0.4
2014-Nov-12 18:16N 32°53' E 034°56'710.4
2014-Nov-12 17:33N 32°54' E 034°48'1110.4
2014-Nov-12 16:31N 32°56' E 034°35'1110.8
2014-Nov-12 15:29N 32°58' E 034°22'1011.0
2014-Nov-12 14:33N 32°60' E 034°10'25 5.9
2014-Nov-12 10:20N 33°24' E 034°05'1 0.8
2014-Nov-12 09:26N 33°25' E 034°05'  

Dump ship's entire track history